Share

Ava, MO (65608)

KMOAVA4 Elev 1273 ft | 36.96 °N, 92.67 °W | Change Station

Current weather conditions updated 3 seconds ago

Clear
Clear
49.5 °F
Feels Like 50 °F
N
0.0
Wind Variable Wind from East
Gusts 0.0 mph
Sunrise 6:31 AM
Sunset 7:48 PM
Moon Waning Gibbous

Today is forecast to be nearly the same temperature as yesterday.

Pressure 30.20 in
Visibility 10.0 miles
Clouds Clear
Windchill 50 °F
Dew Point 32 °F
Humidity 51%
Rainfall 0.00 in
Snow Depth Not available.
UV 0 out of 16
Pollen 10.50 out of 12
Air Quality Not available.
Flu Activity Sporadic
METAR KBPK 191053Z AUTO 00000KT 10SM CLR 10/04 A3021 RMK AO2 SLP225 T01000044

More Conditions Fewer Conditions

Pressure 30.20 in
Visibility 10.0 miles
Clouds Clear
Windchill 50 °F
Dew Point 32 °F
Humidity 51%
Rainfall 0.00 in
Snow Depth Not available.
UV 0 out of 16
Pollen 10.50 out of 12
Air Quality Not available.
Flu Activity Sporadic
METAR KBPK 191053Z AUTO 00000KT 10SM CLR 10/04 A3021 RMK AO2 SLP225 T01000044

More Conditions Fewer Conditions

10-Day Weather Forecast

Almanac

Astronomy

Apr. 19, 2014 Rise Set
Actual Time 6:31 AM CDT 7:48 PM CDT
Civil Twilight 6:04 AM CDT 8:16 PM CDT
Nautical Twilight 5:31 AM CDT 8:48 PM CDT
Astronomical Twilight 4:58 AM CDT 9:22 PM CDT
Moon No Moon Rise 9:53 AM CDT
Length of Visible Light 14h 11m
Length of Day
13h 17m
Tomorrow will be 2m 12s longer.
Waning Gibbous, 80% of the Moon is Illuminated
Today
Waning Gibbous
Apr 22
Last Quarter
Apr 29
New
May 6
First Quarter
May 14
Full

Today's Extremes

State Highs State Lows

Community

  • Bleeding Hearts
    Bleeding Hearts
  • Sunset Silhouettes
    Sunset Silhouettes
  • FL sunset Perico Isle
    FL sunset Perico Isle
  • Cloudy spring view
    Cloudy spring view
  • Old barn
    Old barn

WunderPhotos

Upload Photos

1,702,682 photos uploaded!

WunderBlogs® & News

Nearby

Snow Depth

Station Depth Elevation
No new snow has been reported.

Coastal Water Temperatures

Place Temperature
No Stations Reporting

Earthquake Activity

City Distance Mag. Time & Date
No recent earthquake activity has been reported nearby.
Minimum magnitude displayed is 2.5.

Nearby Weather Stations

Station Location Temp. Windchill Dew Point Humidity Wind Precip. Elev Updated Type
Ava, MO 49.5 °F 50 °F 32 °F 51% East  at  0.0 mph 0.00 in / hr 1273 ft 6:37 AM CDT Rapid Fire
Ava, MO 49.3 °F 49 °F 43 °F 78% SSE  at  0.0 mph 0.00 in / hr 1365 ft 6:37 AM CDT Normal
Jackson Mill, Ava, MO 43.0 °F 43 °F 39 °F 87% SSE  at  0.0 mph - / hr 1181 ft 6:30 AM CDT Normal
Rome, Missouri, Ava, MO 42.8 °F 43 °F 42 °F 96% NW  at  0.0 mph 0.00 in / hr 981 ft 6:35 AM CDT Normal
Vanzant, MO, Missouri, MO 50.0 °F - 44 °F 80% West  at  0.0 mph 0.00 in / hr 1191 ft 6:37 AM CDT Normal

Show More Stations Show Fewer Stations

What do you think?

We're not finished. Please let us know what you like, what you don't like, and what you are still missing.